createdAt,value
2023-03-26T00:00:11.080Z,3.56
2023-03-26T00:01:11.084Z,3.46
2023-03-26T00:02:11.119Z,4.66
2023-03-26T00:03:11.207Z,5.34
2023-03-26T00:04:11.080Z,3.84
2023-03-26T00:05:11.140Z,3.92
2023-03-26T00:06:14.072Z,3.80
2023-03-26T00:07:11.076Z,4.06
2023-03-26T00:08:12.078Z,4.22
2023-03-26T00:09:11.075Z,3.80
2023-03-26T00:10:11.081Z,3.80
2023-03-26T00:11:11.076Z,3.64
2023-03-26T00:12:11.076Z,4.28
2023-03-26T00:13:11.098Z,4.22
2023-03-26T00:14:11.084Z,4.44
2023-03-26T00:15:11.073Z,3.68
2023-03-26T00:16:13.086Z,4.10
2023-03-26T00:17:11.097Z,3.20
2023-03-26T00:18:11.097Z,3.56
2023-03-26T00:19:11.079Z,3.22
2023-03-26T00:20:11.084Z,4.32
2023-03-26T00:21:15.076Z,3.98
2023-03-26T00:22:11.078Z,4.16
2023-03-26T00:23:11.092Z,4.68
2023-03-26T00:24:11.087Z,4.76
2023-03-26T00:25:11.082Z,3.82
2023-03-26T00:26:14.079Z,4.84
2023-03-26T00:27:11.079Z,3.24
2023-03-26T00:28:11.073Z,3.50
2023-03-26T00:29:11.074Z,3.08
2023-03-26T00:30:11.088Z,4.84
2023-03-26T00:31:12.100Z,4.74
2023-03-26T00:32:11.077Z,4.24
2023-03-26T00:33:11.111Z,3.46
2023-03-26T00:34:11.083Z,3.80
2023-03-26T00:35:11.082Z,4.30
2023-03-26T00:36:11.166Z,3.26
2023-03-26T00:37:11.083Z,5.10
2023-03-26T00:38:11.079Z,4.24
2023-03-26T00:39:11.086Z,3.22
2023-03-26T00:40:11.092Z,3.42
2023-03-26T00:41:14.082Z,4.92
2023-03-26T00:42:11.084Z,3.04
2023-03-26T00:43:15.083Z,4.40
2023-03-26T00:44:11.080Z,3.60
2023-03-26T00:45:11.083Z,3.18
2023-03-26T00:46:11.131Z,3.20
2023-03-26T00:47:11.078Z,3.72
2023-03-26T00:48:11.103Z,4.76
2023-03-26T00:49:14.083Z,4.12
2023-03-26T00:50:11.121Z,3.92
2023-03-26T00:51:11.080Z,3.70
2023-03-26T00:52:12.091Z,3.26
2023-03-26T00:53:11.082Z,3.32
2023-03-26T00:54:11.090Z,2.90
2023-03-26T00:55:11.102Z,6.58
2023-03-26T00:56:11.085Z,6.70
2023-03-26T00:57:11.133Z,4.54
2023-03-26T00:58:11.087Z,4.00
2023-03-26T00:59:11.106Z,3.42
2023-03-26T01:00:15.097Z,4.22
2023-03-26T01:01:14.210Z,2.98
2023-03-26T01:02:13.129Z,3.12
2023-03-26T01:03:19.312Z,3.50
2023-03-26T01:04:21.200Z,3.86
2023-03-26T01:05:19.124Z,3.62
2023-03-26T01:06:18.071Z,3.16
2023-03-26T01:07:14.065Z,3.98
2023-03-26T01:08:19.059Z,2.94
2023-03-26T01:09:15.066Z,3.58
2023-03-26T01:10:11.077Z,4.18
2023-03-26T01:11:17.074Z,6.22
2023-03-26T01:12:13.072Z,5.08
2023-03-26T01:13:11.072Z,13.56
2023-03-26T01:14:19.061Z,11.78
2023-03-26T01:15:12.060Z,7.02
2023-03-26T01:16:16.080Z,6.04
2023-03-26T01:17:11.065Z,4.86
2023-03-26T01:18:13.061Z,4.20
2023-03-26T01:19:22.068Z,4.24
2023-03-26T01:20:23.081Z,3.74
2023-03-26T01:21:12.072Z,3.30
2023-03-26T01:22:14.063Z,3.64
2023-03-26T01:23:11.063Z,3.28
2023-03-26T01:24:11.069Z,3.20
2023-03-26T01:25:11.066Z,3.56
2023-03-26T01:26:21.068Z,4.26
2023-03-26T01:27:19.065Z,3.44
2023-03-26T01:28:12.068Z,5.20
2023-03-26T01:29:18.066Z,2.90
2023-03-26T01:30:21.077Z,3.70
2023-03-26T01:31:19.067Z,3.44
2023-03-26T01:32:21.112Z,3.62
2023-03-26T01:33:19.239Z,3.84
2023-03-26T01:34:19.084Z,3.30
2023-03-26T01:35:19.149Z,3.48
2023-03-26T01:36:17.082Z,3.02
2023-03-26T01:37:19.067Z,3.52
2023-03-26T01:38:22.068Z,3.22
2023-03-26T01:39:19.076Z,3.50
2023-03-26T01:40:21.068Z,3.94
2023-03-26T01:41:19.075Z,4.68
2023-03-26T01:42:20.090Z,4.44
2023-03-26T01:43:19.077Z,3.72
2023-03-26T01:44:21.071Z,5.16
2023-03-26T01:45:19.062Z,4.10
2023-03-26T01:46:12.076Z,5.04
2023-03-26T01:47:11.065Z,3.50
2023-03-26T01:48:11.068Z,3.16
2023-03-26T01:49:11.063Z,3.72
2023-03-26T01:50:11.083Z,3.22
2023-03-26T01:51:11.078Z,4.28
2023-03-26T01:52:19.065Z,4.34
2023-03-26T01:53:13.064Z,2.48
2023-03-26T01:54:15.072Z,3.58
2023-03-26T01:55:11.075Z,3.68
2023-03-26T01:56:19.063Z,3.90
2023-03-26T01:57:19.069Z,2.90
2023-03-26T01:58:19.075Z,3.04
2023-03-26T01:59:21.067Z,4.44
2023-03-26T02:00:22.090Z,3.38
2023-03-26T02:01:19.111Z,3.32
2023-03-26T02:02:19.167Z,3.82
2023-03-26T02:03:21.146Z,2.68
2023-03-26T02:04:18.080Z,4.18
2023-03-26T02:05:21.070Z,2.74
2023-03-26T02:06:21.068Z,2.80
2023-03-26T02:07:19.068Z,3.78
2023-03-26T02:08:21.073Z,3.68
2023-03-26T02:09:15.087Z,2.98
2023-03-26T02:10:15.077Z,6.96
2023-03-26T02:11:14.315Z,17.80
2023-03-26T02:12:11.067Z,7.00
2023-03-26T02:13:11.067Z,5.96
2023-03-26T02:14:11.063Z,7.68
2023-03-26T02:15:11.069Z,7.28
2023-03-26T02:16:11.124Z,5.30
2023-03-26T02:17:13.064Z,3.40
2023-03-26T02:18:11.067Z,2.88
2023-03-26T02:19:13.076Z,3.98
2023-03-26T02:20:14.071Z,4.62
2023-03-26T02:21:15.064Z,3.34
2023-03-26T02:22:14.069Z,4.80
2023-03-26T02:23:11.070Z,3.46
2023-03-26T02:24:11.066Z,2.86
2023-03-26T02:25:11.066Z,3.66
2023-03-26T02:26:11.096Z,3.78
2023-03-26T02:27:11.069Z,3.24
2023-03-26T02:28:11.066Z,3.76
2023-03-26T02:29:11.082Z,5.78
2023-03-26T02:30:13.069Z,3.28
2023-03-26T02:31:11.208Z,3.76
2023-03-26T02:32:11.075Z,3.16
2023-03-26T02:33:11.064Z,2.72
2023-03-26T02:34:11.069Z,2.62
2023-03-26T02:35:11.100Z,2.94
2023-03-26T02:36:11.158Z,2.60
2023-03-26T02:37:11.063Z,3.70
2023-03-26T02:38:11.076Z,3.20
2023-03-26T02:39:12.067Z,3.70
2023-03-26T02:40:14.096Z,3.62
2023-03-26T02:41:11.067Z,2.90
2023-03-26T02:42:11.074Z,2.26
2023-03-26T02:43:11.073Z,3.34
2023-03-26T02:44:11.087Z,2.64
2023-03-26T02:45:11.084Z,4.48
2023-03-26T02:46:11.102Z,2.66
2023-03-26T02:47:11.070Z,3.84
2023-03-26T02:48:11.083Z,3.68
2023-03-26T02:49:11.067Z,3.04
2023-03-26T02:50:11.070Z,2.98
2023-03-26T02:51:11.080Z,3.48
2023-03-26T02:52:12.077Z,3.74
2023-03-26T02:53:11.069Z,3.34
2023-03-26T02:54:11.075Z,4.06
2023-03-26T02:55:11.068Z,3.46
2023-03-26T02:56:11.067Z,3.42
2023-03-26T02:57:11.094Z,5.84
2023-03-26T02:58:11.071Z,4.42
2023-03-26T02:59:11.070Z,3.98
2023-03-26T03:00:15.093Z,3.58
2023-03-26T03:01:11.098Z,3.10
2023-03-26T03:02:11.119Z,3.56
2023-03-26T03:03:11.121Z,3.76
2023-03-26T03:04:14.075Z,4.40
2023-03-26T03:05:11.068Z,3.32
2023-03-26T03:06:11.071Z,4.26
2023-03-26T03:07:11.077Z,3.64
2023-03-26T03:08:11.069Z,2.90
2023-03-26T03:09:11.067Z,3.42
2023-03-26T03:10:12.072Z,4.06
2023-03-26T03:11:11.074Z,3.24
2023-03-26T03:12:11.070Z,4.28
2023-03-26T03:13:11.071Z,2.72
2023-03-26T03:14:11.068Z,3.64
2023-03-26T03:15:11.072Z,4.56
2023-03-26T03:16:11.135Z,5.82
2023-03-26T03:17:11.071Z,3.48
2023-03-26T03:18:11.066Z,3.42
2023-03-26T03:19:11.072Z,3.52
2023-03-26T03:20:13.080Z,4.10
2023-03-26T03:21:11.081Z,3.70
2023-03-26T03:22:11.072Z,3.40
2023-03-26T03:23:11.091Z,3.46
2023-03-26T03:24:11.072Z,5.04
2023-03-26T03:25:12.076Z,5.20
2023-03-26T03:26:14.080Z,3.92
2023-03-26T03:27:11.073Z,4.56
2023-03-26T03:28:11.073Z,3.52
2023-03-26T03:29:11.078Z,3.26
2023-03-26T03:30:11.075Z,3.96
2023-03-26T03:31:11.085Z,4.82
2023-03-26T03:32:11.082Z,4.60
2023-03-26T03:33:11.079Z,4.20
2023-03-26T03:34:11.074Z,4.04
2023-03-26T03:35:11.078Z,3.98
2023-03-26T03:36:20.552Z,5.42
2023-03-26T03:37:13.388Z,3.78
2023-03-26T03:38:11.088Z,3.98
2023-03-26T03:39:11.084Z,4.18
2023-03-26T03:40:11.131Z,3.90
2023-03-26T03:41:11.075Z,3.76
2023-03-26T03:42:11.079Z,3.58
2023-03-26T03:43:11.078Z,4.50
2023-03-26T03:44:11.078Z,4.44
2023-03-26T03:45:11.109Z,3.90
2023-03-26T03:46:11.084Z,4.54
2023-03-26T03:47:11.079Z,3.40
2023-03-26T03:48:11.089Z,4.84
2023-03-26T03:49:11.103Z,4.28
2023-03-26T03:50:11.077Z,4.02
2023-03-26T03:51:11.086Z,4.20
2023-03-26T03:52:11.081Z,5.34
2023-03-26T03:53:11.076Z,3.64
2023-03-26T03:54:11.081Z,3.40
2023-03-26T03:55:11.080Z,4.90
2023-03-26T03:56:14.076Z,5.00
2023-03-26T03:57:11.104Z,4.44
2023-03-26T03:58:13.079Z,3.94
2023-03-26T03:59:11.077Z,4.86
2023-03-26T04:00:11.080Z,5.18
2023-03-26T04:01:11.074Z,4.90
2023-03-26T04:02:11.075Z,3.72
2023-03-26T04:03:11.155Z,4.20
2023-03-26T04:04:11.133Z,5.94
2023-03-26T04:05:11.058Z,4.22
2023-03-26T04:06:11.101Z,4.60
2023-03-26T04:07:11.072Z,4.44
2023-03-26T04:08:11.063Z,4.68
2023-03-26T04:09:11.061Z,4.74
2023-03-26T04:10:14.072Z,4.48
2023-03-26T04:11:11.068Z,4.64
2023-03-26T04:12:11.069Z,4.50
2023-03-26T04:13:11.062Z,5.02
2023-03-26T04:14:11.067Z,5.30
2023-03-26T04:15:11.061Z,5.14
2023-03-26T04:16:11.115Z,4.04
2023-03-26T04:17:11.066Z,4.58
2023-03-26T04:18:14.062Z,4.28
2023-03-26T04:19:11.064Z,5.00
2023-03-26T04:20:11.065Z,4.50
2023-03-26T04:21:11.070Z,5.30
2023-03-26T04:22:11.063Z,4.64
2023-03-26T04:23:11.064Z,5.40
2023-03-26T04:24:11.061Z,5.24
2023-03-26T04:25:11.065Z,5.04
2023-03-26T04:26:15.066Z,5.32
2023-03-26T04:27:14.063Z,5.22
2023-03-26T04:28:15.066Z,4.94
2023-03-26T04:29:11.067Z,5.24
2023-03-26T04:30:13.076Z,3.88
2023-03-26T04:31:12.074Z,4.64
2023-03-26T04:32:21.074Z,4.50
2023-03-26T04:33:11.072Z,5.54
2023-03-26T04:34:21.061Z,3.92
2023-03-26T04:35:14.064Z,4.84
2023-03-26T04:36:11.084Z,5.88
2023-03-26T04:37:14.065Z,5.56
2023-03-26T04:38:12.077Z,3.66
2023-03-26T04:39:11.066Z,4.24
2023-03-26T04:40:16.066Z,5.56
2023-03-26T04:41:12.066Z,4.76
2023-03-26T04:42:11.078Z,4.70
2023-03-26T04:43:13.074Z,4.78
2023-03-26T04:44:11.069Z,6.68
2023-03-26T04:45:11.077Z,5.38
2023-03-26T04:46:11.080Z,5.80
2023-03-26T04:47:11.065Z,5.44
2023-03-26T04:48:11.062Z,7.62
2023-03-26T04:49:11.072Z,5.64
2023-03-26T04:50:11.066Z,5.78
2023-03-26T04:51:14.065Z,5.48
2023-03-26T04:52:11.067Z,5.22
2023-03-26T04:53:12.067Z,5.98
2023-03-26T04:54:11.065Z,7.28
2023-03-26T04:55:19.070Z,4.42
2023-03-26T04:56:19.069Z,4.72
2023-03-26T04:57:16.094Z,5.08
2023-03-26T04:58:11.069Z,5.16
2023-03-26T04:59:12.074Z,5.28
2023-03-26T05:00:17.085Z,5.98
2023-03-26T05:01:11.130Z,4.56
2023-03-26T05:02:11.070Z,4.18
2023-03-26T05:03:13.080Z,4.30
2023-03-26T05:04:11.161Z,4.52
2023-03-26T05:05:11.063Z,4.12
2023-03-26T05:06:11.070Z,4.02
2023-03-26T05:07:11.076Z,4.86
2023-03-26T05:08:11.064Z,5.36
2023-03-26T05:09:11.068Z,5.64
2023-03-26T05:10:14.071Z,5.60
2023-03-26T05:11:15.063Z,6.66
2023-03-26T05:12:11.066Z,7.62
2023-03-26T05:13:11.109Z,8.46
2023-03-26T05:14:11.065Z,9.56
2023-03-26T05:15:11.069Z,9.32
2023-03-26T05:16:11.109Z,9.10
2023-03-26T05:17:14.066Z,11.04
2023-03-26T05:18:11.075Z,9.84
2023-03-26T05:19:11.074Z,10.22
2023-03-26T05:20:19.065Z,10.48
2023-03-26T05:21:11.084Z,12.92
2023-03-26T05:22:11.079Z,12.58
2023-03-26T05:23:11.078Z,11.00
2023-03-26T05:24:11.067Z,12.50
2023-03-26T05:25:11.067Z,12.70
2023-03-26T05:26:11.069Z,12.78
2023-03-26T05:27:15.079Z,12.86
2023-03-26T05:28:11.077Z,13.14
2023-03-26T05:29:11.065Z,13.20
2023-03-26T05:30:12.073Z,12.62
2023-03-26T05:31:11.074Z,12.88
2023-03-26T05:32:11.075Z,13.36
2023-03-26T05:33:11.137Z,12.84
2023-03-26T05:34:11.069Z,13.80
2023-03-26T05:35:11.065Z,11.98
2023-03-26T05:36:11.067Z,12.76
2023-03-26T05:37:11.067Z,12.54
2023-03-26T05:38:11.093Z,13.26
2023-03-26T05:39:11.077Z,13.34
2023-03-26T05:40:15.074Z,11.78
2023-03-26T05:41:11.084Z,12.10
2023-03-26T05:42:11.126Z,10.84
2023-03-26T05:43:11.117Z,12.52
2023-03-26T05:44:11.132Z,12.12
2023-03-26T05:45:11.167Z,11.90
2023-03-26T05:46:11.220Z,12.02
2023-03-26T05:47:11.186Z,13.58
2023-03-26T05:48:11.164Z,13.62
2023-03-26T05:49:11.142Z,13.58
2023-03-26T05:50:11.144Z,13.32
2023-03-26T05:51:11.128Z,13.96
2023-03-26T05:52:11.070Z,13.00
2023-03-26T05:53:11.070Z,13.48
2023-03-26T05:54:11.072Z,14.48
2023-03-26T05:55:11.070Z,13.22
2023-03-26T05:56:11.074Z,13.64
2023-03-26T05:57:11.115Z,13.14
2023-03-26T05:58:11.071Z,13.50
2023-03-26T05:59:11.073Z,14.32
2023-03-26T06:00:11.093Z,14.88
2023-03-26T06:01:11.070Z,13.74
2023-03-26T06:02:11.077Z,13.86
2023-03-26T06:03:11.163Z,13.00
2023-03-26T06:04:12.238Z,12.50
2023-03-26T06:05:11.068Z,12.86
2023-03-26T06:06:11.079Z,14.52
2023-03-26T06:07:13.086Z,13.68
2023-03-26T06:08:11.066Z,13.90
2023-03-26T06:09:11.074Z,14.14
2023-03-26T06:10:11.074Z,13.14
2023-03-26T06:11:13.071Z,13.88
2023-03-26T06:12:11.077Z,14.18
2023-03-26T06:13:11.080Z,13.66
2023-03-26T06:14:11.081Z,13.26
2023-03-26T06:15:11.072Z,14.58
2023-03-26T06:16:11.125Z,10.76
2023-03-26T06:17:13.043Z,12.94
2023-03-26T06:18:11.113Z,11.76
2023-03-26T06:19:11.115Z,11.38
2023-03-26T06:20:11.079Z,12.40
2023-03-26T06:21:11.082Z,11.22
2023-03-26T06:22:11.074Z,11.50
2023-03-26T06:23:11.069Z,12.18
2023-03-26T06:24:11.088Z,12.50
2023-03-26T06:25:11.070Z,12.22
2023-03-26T06:26:11.075Z,11.50
2023-03-26T06:27:11.079Z,12.12
2023-03-26T06:28:11.071Z,13.58
2023-03-26T06:29:11.080Z,12.04
2023-03-26T06:30:11.072Z,12.44
2023-03-26T06:31:11.105Z,14.16
2023-03-26T06:32:19.610Z,14.30
2023-03-26T06:33:13.044Z,14.28
2023-03-26T06:34:11.076Z,14.66
2023-03-26T06:35:11.108Z,13.86
2023-03-26T06:36:11.106Z,14.58
2023-03-26T06:37:11.071Z,13.58
2023-03-26T06:38:11.080Z,11.66
2023-03-26T06:39:11.080Z,12.50
2023-03-26T06:40:11.083Z,12.18
2023-03-26T06:41:11.078Z,12.56
2023-03-26T06:42:11.077Z,11.74
2023-03-26T06:43:11.289Z,9.80
2023-03-26T06:44:11.082Z,11.40
2023-03-26T06:45:11.085Z,11.18
2023-03-26T06:46:11.133Z,11.48
2023-03-26T06:47:11.108Z,11.56
2023-03-26T06:48:11.075Z,10.14
2023-03-26T06:49:11.076Z,11.36
2023-03-26T06:50:11.076Z,10.14
2023-03-26T06:51:11.087Z,10.48
2023-03-26T06:52:11.076Z,10.32
2023-03-26T06:53:11.076Z,11.40
2023-03-26T06:54:11.081Z,10.60
2023-03-26T06:55:12.079Z,10.12
2023-03-26T06:56:11.103Z,9.94
2023-03-26T06:57:11.144Z,11.78
2023-03-26T06:58:12.082Z,10.88
2023-03-26T06:59:11.083Z,10.22
2023-03-26T07:00:11.091Z,10.32
2023-03-26T07:01:11.097Z,9.28
2023-03-26T07:02:11.062Z,9.80
2023-03-26T07:03:11.068Z,11.68
2023-03-26T07:04:11.091Z,10.36
2023-03-26T07:05:11.077Z,9.54
2023-03-26T07:06:11.073Z,10.06
2023-03-26T07:07:11.071Z,9.36
2023-03-26T07:08:11.067Z,9.64
2023-03-26T07:09:11.067Z,11.20
2023-03-26T07:10:11.069Z,11.32
2023-03-26T07:11:11.065Z,10.02
2023-03-26T07:12:11.078Z,10.62
2023-03-26T07:13:11.103Z,10.04
2023-03-26T07:14:11.064Z,11.26
2023-03-26T07:15:11.102Z,10.14
2023-03-26T07:16:11.097Z,8.06
2023-03-26T07:17:11.063Z,8.12
2023-03-26T07:18:11.065Z,7.44
2023-03-26T07:19:11.070Z,8.54
2023-03-26T07:20:11.063Z,7.52
2023-03-26T07:21:11.389Z,8.34
2023-03-26T07:22:19.067Z,8.54
2023-03-26T07:23:11.066Z,7.62
2023-03-26T07:24:13.065Z,7.66
2023-03-26T07:25:11.074Z,7.34
2023-03-26T07:26:19.065Z,5.62
2023-03-26T07:27:19.080Z,6.80
2023-03-26T07:28:21.066Z,5.10
2023-03-26T07:29:19.089Z,6.54
2023-03-26T07:30:15.071Z,6.96
2023-03-26T07:31:23.089Z,6.68
2023-03-26T07:32:19.312Z,7.24
2023-03-26T07:33:21.194Z,6.04
2023-03-26T07:34:19.073Z,6.12
2023-03-26T07:35:18.099Z,6.10
2023-03-26T07:36:21.092Z,5.02
2023-03-26T07:37:21.092Z,4.66
2023-03-26T07:38:19.070Z,6.46
2023-03-26T07:39:21.068Z,5.36
2023-03-26T07:40:19.074Z,6.08
2023-03-26T07:41:20.068Z,6.26
2023-03-26T07:42:21.065Z,6.40
2023-03-26T07:43:19.065Z,5.24
2023-03-26T07:44:19.064Z,5.84
2023-03-26T07:45:21.092Z,5.80
2023-03-26T07:46:13.103Z,4.92
2023-03-26T07:47:19.065Z,4.68
2023-03-26T07:48:18.070Z,5.66
2023-03-26T07:49:14.066Z,4.12
2023-03-26T07:50:17.060Z,5.30
2023-03-26T07:51:11.077Z,4.48
2023-03-26T07:52:11.067Z,4.10
2023-03-26T07:53:11.071Z,4.08
2023-03-26T07:54:11.072Z,3.94
2023-03-26T07:55:13.062Z,3.76
2023-03-26T07:56:16.115Z,3.38
2023-03-26T07:57:19.114Z,2.92
2023-03-26T07:58:19.065Z,3.46
2023-03-26T07:59:19.068Z,3.20
2023-03-26T08:00:21.177Z,3.78
2023-03-26T08:01:21.079Z,3.14
2023-03-26T08:02:19.073Z,1.90
2023-03-26T08:03:19.224Z,3.62
2023-03-26T08:04:24.116Z,2.32
2023-03-26T08:05:25.368Z,3.24
2023-03-26T08:06:19.071Z,2.58
2023-03-26T08:07:19.069Z,2.94
2023-03-26T08:08:18.068Z,2.94
2023-03-26T08:09:20.070Z,2.08
2023-03-26T08:10:19.073Z,2.18
2023-03-26T08:11:19.068Z,2.88
2023-03-26T08:12:21.077Z,2.20
2023-03-26T08:13:23.067Z,1.96
2023-03-26T08:14:19.063Z,2.88
2023-03-26T08:15:19.068Z,2.82
2023-03-26T08:16:19.137Z,2.16
2023-03-26T08:17:16.070Z,2.54
2023-03-26T08:18:19.074Z,3.44
2023-03-26T08:19:21.067Z,2.46
2023-03-26T08:20:19.117Z,2.20
2023-03-26T08:21:19.088Z,3.38
2023-03-26T08:22:19.068Z,2.34
2023-03-26T08:23:19.067Z,2.78
2023-03-26T08:24:19.072Z,2.64
2023-03-26T08:25:19.085Z,3.22
2023-03-26T08:26:19.069Z,3.82
2023-03-26T08:27:21.064Z,2.46
2023-03-26T08:28:19.065Z,2.74
2023-03-26T08:29:19.067Z,2.60
2023-03-26T08:30:20.073Z,3.48
2023-03-26T08:31:12.154Z,3.02
2023-03-26T08:32:16.064Z,2.40
2023-03-26T08:33:15.069Z,2.02
2023-03-26T08:34:13.078Z,2.54
2023-03-26T08:35:13.069Z,2.50
2023-03-26T08:36:11.066Z,2.68
2023-03-26T08:37:11.068Z,2.70
2023-03-26T08:38:11.067Z,3.46
2023-03-26T08:39:11.084Z,2.54
2023-03-26T08:40:11.065Z,1.86
2023-03-26T08:41:21.080Z,1.90
2023-03-26T08:42:19.073Z,2.98
2023-03-26T08:43:21.062Z,4.28
2023-03-26T08:44:21.079Z,2.20
2023-03-26T08:45:19.075Z,2.74
2023-03-26T08:46:19.102Z,2.30
2023-03-26T08:47:19.065Z,2.02
2023-03-26T08:48:19.072Z,2.82
2023-03-26T08:49:22.321Z,4.24
2023-03-26T08:50:19.103Z,2.78
2023-03-26T08:51:21.067Z,2.42
2023-03-26T08:52:19.064Z,2.20
2023-03-26T08:53:19.063Z,2.78
2023-03-26T08:54:23.074Z,2.84
2023-03-26T08:55:21.091Z,4.24
2023-03-26T08:56:19.069Z,3.20
2023-03-26T08:57:19.066Z,3.24
2023-03-26T08:58:19.066Z,2.30
2023-03-26T08:59:19.067Z,2.98
2023-03-26T09:00:21.077Z,3.22
2023-03-26T09:01:19.097Z,1.86
2023-03-26T09:02:21.082Z,2.66
2023-03-26T09:03:19.068Z,2.22
2023-03-26T09:04:19.095Z,4.36
2023-03-26T09:05:19.075Z,2.04
2023-03-26T09:06:19.076Z,3.42
2023-03-26T09:07:19.077Z,2.82
2023-03-26T09:08:19.066Z,4.96
2023-03-26T09:09:19.556Z,3.84
2023-03-26T09:10:19.074Z,2.08
2023-03-26T09:11:19.075Z,1.76
2023-03-26T09:12:19.097Z,2.52
2023-03-26T09:13:19.077Z,2.46
2023-03-26T09:14:19.077Z,4.72
2023-03-26T09:15:19.096Z,5.04
2023-03-26T09:16:19.125Z,2.58
2023-03-26T09:17:19.071Z,2.46
2023-03-26T09:18:19.067Z,2.72
2023-03-26T09:19:21.070Z,3.10
2023-03-26T09:20:21.081Z,2.20
2023-03-26T09:21:21.080Z,3.18
2023-03-26T09:22:21.074Z,2.08
2023-03-26T09:23:19.072Z,2.50
2023-03-26T09:24:19.069Z,2.78
2023-03-26T09:25:19.091Z,2.54
2023-03-26T09:26:19.100Z,2.96
2023-03-26T09:27:19.083Z,3.02
2023-03-26T09:28:21.072Z,2.76
2023-03-26T09:29:19.070Z,2.72
2023-03-26T09:30:19.076Z,3.12
2023-03-26T09:31:21.129Z,2.28
2023-03-26T09:32:19.079Z,2.82
2023-03-26T09:33:19.073Z,2.50
2023-03-26T09:34:19.080Z,2.68
2023-03-26T09:35:19.112Z,1.76
2023-03-26T09:36:19.078Z,3.38
2023-03-26T09:37:17.075Z,2.32
2023-03-26T09:38:21.071Z,2.16
2023-03-26T09:39:21.073Z,2.80
2023-03-26T09:40:18.082Z,2.16
2023-03-26T09:41:15.084Z,2.38
2023-03-26T09:42:17.088Z,3.14
2023-03-26T09:43:21.074Z,3.10
2023-03-26T09:44:19.078Z,4.18
2023-03-26T09:45:19.084Z,2.50
2023-03-26T09:46:19.107Z,3.06
2023-03-26T09:47:19.117Z,2.56
2023-03-26T09:48:19.082Z,3.34
2023-03-26T09:49:19.077Z,2.42
2023-03-26T09:50:19.091Z,3.32
2023-03-26T09:51:21.079Z,2.74
2023-03-26T09:52:21.081Z,5.38
2023-03-26T09:53:19.079Z,3.06
2023-03-26T09:54:19.079Z,2.56
2023-03-26T09:55:20.083Z,3.04
2023-03-26T09:56:19.095Z,2.86
2023-03-26T09:57:19.236Z,4.68
2023-03-26T09:58:19.073Z,2.32
2023-03-26T09:59:19.078Z,3.30
2023-03-26T10:00:21.065Z,3.12
2023-03-26T10:01:21.089Z,3.50
2023-03-26T10:02:19.065Z,1.90
2023-03-26T10:03:19.099Z,2.74
2023-03-26T10:04:21.118Z,3.32
2023-03-26T10:05:19.060Z,3.62
2023-03-26T10:06:19.070Z,2.68
2023-03-26T10:07:21.064Z,4.44
2023-03-26T10:08:21.071Z,3.88
2023-03-26T10:09:21.067Z,3.66
2023-03-26T10:10:19.076Z,4.26
2023-03-26T10:11:19.064Z,3.66
2023-03-26T10:12:19.063Z,4.62
2023-03-26T10:13:21.061Z,3.30
2023-03-26T10:14:21.063Z,3.24
2023-03-26T10:15:20.064Z,2.24
2023-03-26T10:16:19.091Z,4.00
2023-03-26T10:17:19.078Z,3.40
2023-03-26T10:18:27.488Z,3.40
2023-03-26T10:19:21.361Z,3.36
2023-03-26T10:20:21.065Z,3.12
2023-03-26T10:21:19.061Z,5.80
2023-03-26T10:22:19.081Z,3.10
2023-03-26T10:23:23.067Z,2.80
2023-03-26T10:24:19.061Z,5.06
2023-03-26T10:25:21.065Z,3.94
2023-03-26T10:26:21.065Z,5.00
2023-03-26T10:27:19.071Z,3.78
2023-03-26T10:28:21.068Z,3.18
2023-03-26T10:29:19.069Z,3.78
2023-03-26T10:30:19.061Z,3.64
2023-03-26T10:31:21.077Z,2.66
2023-03-26T10:32:21.061Z,4.16
2023-03-26T10:33:19.071Z,5.92
2023-03-26T10:34:28.728Z,3.08
2023-03-26T10:35:21.051Z,3.92
2023-03-26T10:36:19.055Z,2.74
2023-03-26T10:37:19.060Z,3.94
2023-03-26T10:38:16.067Z,4.24
2023-03-26T10:39:37.120Z,3.84
2023-03-26T10:40:22.022Z,3.22
2023-03-26T10:41:19.064Z,2.92
2023-03-26T10:42:19.061Z,2.72
2023-03-26T10:43:19.073Z,3.92
2023-03-26T10:44:19.062Z,2.86
2023-03-26T10:45:21.066Z,2.62
2023-03-26T10:46:19.098Z,4.04
2023-03-26T10:47:22.102Z,2.96
2023-03-26T10:48:19.075Z,3.86
2023-03-26T10:49:19.060Z,2.80
2023-03-26T10:50:22.881Z,2.80
2023-03-26T10:51:21.057Z,2.04
2023-03-26T10:52:18.059Z,2.66
2023-03-26T10:53:19.067Z,2.72
2023-03-26T10:54:18.067Z,1.98
2023-03-26T10:55:16.066Z,3.50
2023-03-26T10:56:19.063Z,2.18
2023-03-26T10:57:19.059Z,3.92
2023-03-26T10:58:19.067Z,3.22
2023-03-26T10:59:13.061Z,3.30
2023-03-26T11:00:18.062Z,2.56
2023-03-26T11:01:18.089Z,3.06
2023-03-26T11:02:21.088Z,3.02
2023-03-26T11:03:21.043Z,2.96
2023-03-26T11:04:19.070Z,2.56
2023-03-26T11:05:19.069Z,1.90
2023-03-26T11:06:21.070Z,4.00
2023-03-26T11:07:19.069Z,3.22
2023-03-26T11:08:18.084Z,3.50
2023-03-26T11:09:19.075Z,3.02
2023-03-26T11:10:19.063Z,3.42
2023-03-26T11:11:19.072Z,2.74
2023-03-26T11:12:26.817Z,2.70
2023-03-26T11:13:25.041Z,3.34
2023-03-26T11:14:31.802Z,3.24
2023-03-26T11:15:21.025Z,4.18
2023-03-26T11:16:19.091Z,2.44
2023-03-26T11:17:40.734Z,3.74
2023-03-26T11:18:21.059Z,2.40
2023-03-26T11:19:19.070Z,2.44
2023-03-26T11:20:22.071Z,2.64
2023-03-26T11:21:20.570Z,3.42
2023-03-26T11:22:19.069Z,4.10
2023-03-26T11:23:19.078Z,4.76
2023-03-26T11:24:19.070Z,2.68
2023-03-26T11:25:19.078Z,4.08
2023-03-26T11:26:17.076Z,3.24
2023-03-26T11:27:23.741Z,5.16
2023-03-26T11:28:21.074Z,2.68
2023-03-26T11:29:30.956Z,2.78
2023-03-26T11:30:21.359Z,2.94
2023-03-26T11:31:19.130Z,2.56
2023-03-26T11:32:20.077Z,1.98
2023-03-26T11:33:16.080Z,2.64
2023-03-26T11:34:19.074Z,2.70
2023-03-26T11:35:41.042Z,2.90
2023-03-26T11:36:19.104Z,2.02
2023-03-26T11:37:18.074Z,3.66
2023-03-26T11:38:19.087Z,2.08
2023-03-26T11:39:18.075Z,2.22
2023-03-26T11:40:16.076Z,2.18
2023-03-26T11:41:22.467Z,3.22
2023-03-26T11:42:16.047Z,2.98
2023-03-26T11:43:12.075Z,2.92
2023-03-26T11:44:23.072Z,3.08
2023-03-26T11:45:19.069Z,2.36
2023-03-26T11:46:14.118Z,2.14
2023-03-26T11:47:12.097Z,2.84
2023-03-26T11:48:20.072Z,2.88
2023-03-26T11:49:12.084Z,2.26
2023-03-26T11:50:16.086Z,2.10
2023-03-26T11:51:20.076Z,3.50
2023-03-26T11:52:11.078Z,2.92
2023-03-26T11:53:14.070Z,1.92
2023-03-26T11:54:12.075Z,2.40
2023-03-26T11:55:12.074Z,3.48
2023-03-26T11:56:19.071Z,1.64
2023-03-26T11:57:13.122Z,3.52
2023-03-26T11:58:19.073Z,3.10
2023-03-26T11:59:20.553Z,2.52
2023-03-26T12:00:17.073Z,2.78
2023-03-26T12:01:21.070Z,3.06
2023-03-26T12:02:18.119Z,2.38
2023-03-26T12:03:16.086Z,2.98
2023-03-26T12:04:14.100Z,3.44
2023-03-26T12:05:18.274Z,3.12
2023-03-26T12:06:19.071Z,3.12
2023-03-26T12:07:15.076Z,3.62
2023-03-26T12:08:19.066Z,2.84
2023-03-26T12:09:17.063Z,3.70
2023-03-26T12:10:19.548Z,3.20
2023-03-26T12:11:12.076Z,3.00
2023-03-26T12:12:13.071Z,2.34
2023-03-26T12:13:19.069Z,3.00
2023-03-26T12:14:18.069Z,3.06
2023-03-26T12:15:18.092Z,2.88
2023-03-26T12:16:18.085Z,3.38
2023-03-26T12:17:14.066Z,4.00
2023-03-26T12:18:19.075Z,2.16
2023-03-26T12:19:19.099Z,4.02
2023-03-26T12:20:19.075Z,2.62
2023-03-26T12:21:15.083Z,2.42
2023-03-26T12:22:19.070Z,2.62
2023-03-26T12:23:19.076Z,2.36
2023-03-26T12:24:19.068Z,2.30
2023-03-26T12:25:15.072Z,3.44
2023-03-26T12:26:16.083Z,2.30
2023-03-26T12:27:19.070Z,3.68
2023-03-26T12:28:18.079Z,3.20
2023-03-26T12:29:12.068Z,2.12
2023-03-26T12:30:19.071Z,2.80
2023-03-26T12:31:13.098Z,3.76
2023-03-26T12:32:15.070Z,3.62
2023-03-26T12:33:19.134Z,2.70
2023-03-26T12:34:15.065Z,2.60
2023-03-26T12:35:16.070Z,2.88
2023-03-26T12:36:20.068Z,3.98
2023-03-26T12:37:21.079Z,2.58
2023-03-26T12:38:19.090Z,2.78
2023-03-26T12:40:07.672Z,2.82
2023-03-26T12:40:22.389Z,2.22
2023-03-26T12:44:42.535Z,2.80
2023-03-26T12:44:42.959Z,2.74
2023-03-26T12:44:50.125Z,2.62
2023-03-26T12:44:52.814Z,2.94
2023-03-26T12:45:16.028Z,2.44
2023-03-26T12:47:56.521Z,4.60
2023-03-26T12:47:58.655Z,2.34
2023-03-26T12:48:15.116Z,2.10
2023-03-26T12:49:12.188Z,2.70
2023-03-26T12:50:14.086Z,2.50
2023-03-26T12:51:19.072Z,3.56
2023-03-26T12:52:19.083Z,1.46
2023-03-26T12:53:19.088Z,2.56
2023-03-26T12:54:21.068Z,8.20
2023-03-26T12:55:19.072Z,2.38
2023-03-26T12:56:19.069Z,2.88
2023-03-26T12:57:21.159Z,2.48
2023-03-26T12:58:19.072Z,2.64
2023-03-26T12:59:19.074Z,2.40
2023-03-26T13:00:22.054Z,2.82
2023-03-26T13:01:21.117Z,2.84
2023-03-26T13:02:19.087Z,2.60
2023-03-26T13:03:21.157Z,1.64
2023-03-26T13:04:19.053Z,2.96
2023-03-26T13:05:19.059Z,2.58
2023-03-26T13:06:19.058Z,2.94
2023-03-26T13:07:19.063Z,2.46
2023-03-26T13:08:19.059Z,1.76
2023-03-26T13:09:19.053Z,2.28
2023-03-26T13:10:21.052Z,4.04
2023-03-26T13:11:17.058Z,3.08
2023-03-26T13:12:23.064Z,1.80
2023-03-26T13:13:21.064Z,1.52
2023-03-26T13:14:21.059Z,2.94